createdAt,value
2023-05-11T00:00:59.522Z,94986.00
2023-05-11T00:01:59.608Z,94984.00
2023-05-11T00:02:59.635Z,94982.00
2023-05-11T00:03:59.646Z,94982.00
2023-05-11T00:04:59.541Z,94980.00
2023-05-11T00:05:59.527Z,94978.00
2023-05-11T00:06:59.537Z,94978.00
2023-05-11T00:07:59.537Z,94976.00
2023-05-11T00:08:59.563Z,94976.00
2023-05-11T00:09:59.526Z,94976.00
2023-05-11T00:10:59.551Z,94974.00
2023-05-11T00:11:59.512Z,94974.00
2023-05-11T00:12:59.518Z,94972.00
2023-05-11T00:13:59.516Z,94972.00
2023-05-11T00:14:59.507Z,94970.00
2023-05-11T00:15:59.560Z,94970.00
2023-05-11T00:16:59.510Z,94968.00
2023-05-11T00:17:59.539Z,94966.00
2023-05-11T00:18:59.526Z,94968.00
2023-05-11T00:19:59.520Z,94966.00
2023-05-11T00:20:59.515Z,94966.00
2023-05-11T00:21:59.544Z,94964.00
2023-05-11T00:22:59.520Z,94966.00
2023-05-11T00:23:59.518Z,94966.00
2023-05-11T00:24:59.506Z,94964.00
2023-05-11T00:25:59.499Z,94962.00
2023-05-11T00:26:59.545Z,94962.00
2023-05-11T00:27:59.499Z,94960.00
2023-05-11T00:28:59.499Z,94960.00
2023-05-11T00:29:59.498Z,94960.00
2023-05-11T00:30:59.520Z,94962.00
2023-05-11T00:31:59.537Z,94960.00
2023-05-11T00:32:59.549Z,94958.00
2023-05-11T00:33:59.486Z,94958.00
2023-05-11T00:34:59.477Z,94956.00
2023-05-11T00:35:59.497Z,94956.00
2023-05-11T00:36:59.480Z,94956.00
2023-05-11T00:37:59.471Z,94956.00
2023-05-11T00:38:59.467Z,94950.00
2023-05-11T00:39:59.469Z,94952.00
2023-05-11T00:40:59.472Z,94952.00
2023-05-11T00:41:59.461Z,94950.00
2023-05-11T00:42:59.488Z,94948.00
2023-05-11T00:43:59.470Z,94948.00
2023-05-11T00:44:59.469Z,94948.00
2023-05-11T00:45:59.470Z,94948.00
2023-05-11T00:46:59.533Z,94948.00
2023-05-11T00:47:59.501Z,94948.00
2023-05-11T00:48:59.504Z,94948.00
2023-05-11T00:49:59.480Z,94948.00
2023-05-11T00:50:59.475Z,94946.00
2023-05-11T00:51:59.486Z,94944.00
2023-05-11T00:52:59.485Z,94944.00
2023-05-11T00:53:59.497Z,94944.00
2023-05-11T00:54:59.497Z,94941.00
2023-05-11T00:55:59.499Z,94944.00
2023-05-11T00:56:59.497Z,94941.00
2023-05-11T00:57:59.492Z,94937.00
2023-05-11T00:58:59.522Z,94939.00
2023-05-11T00:59:59.502Z,94941.00
2023-05-11T01:00:59.511Z,94937.00
2023-05-11T01:01:59.546Z,94939.00
2023-05-11T01:02:59.519Z,94941.00
2023-05-11T01:03:59.509Z,94941.00
2023-05-11T01:04:59.517Z,94941.00
2023-05-11T01:05:59.520Z,94941.00
2023-05-11T01:06:59.526Z,94939.00
2023-05-11T01:07:59.538Z,94941.00
2023-05-11T01:08:59.545Z,94941.00
2023-05-11T01:09:59.537Z,94939.00
2023-05-11T01:10:59.565Z,94939.00
2023-05-11T01:11:59.565Z,94937.00
2023-05-11T01:12:59.562Z,94939.00
2023-05-11T01:13:59.579Z,94939.00
2023-05-11T01:14:59.627Z,94935.00
2023-05-11T01:15:59.586Z,94937.00
2023-05-11T01:16:59.730Z,94937.00
2023-05-11T01:17:59.629Z,94939.00
2023-05-11T01:18:59.670Z,94937.00
2023-05-11T01:19:59.622Z,94939.00
2023-05-11T01:20:59.638Z,94939.00
2023-05-11T01:21:59.637Z,94941.00
2023-05-11T01:22:59.648Z,94941.00
2023-05-11T01:23:59.660Z,94937.00
2023-05-11T01:24:59.666Z,94943.00
2023-05-11T01:25:59.668Z,94943.00
2023-05-11T01:26:59.708Z,94939.00
2023-05-11T01:27:59.707Z,94941.00
2023-05-11T01:28:59.723Z,94939.00
2023-05-11T01:29:59.747Z,94941.00
2023-05-11T01:30:59.794Z,94937.00
2023-05-11T01:31:59.813Z,94935.00
2023-05-11T01:32:59.865Z,94935.00
2023-05-11T01:33:59.834Z,94935.00
2023-05-11T01:34:59.837Z,94935.00
2023-05-11T01:35:59.850Z,94935.00
2023-05-11T01:36:59.869Z,94937.00
2023-05-11T01:37:59.884Z,94933.00
2023-05-11T01:38:59.901Z,94935.00
2023-05-11T01:39:59.919Z,94937.00
2023-05-11T01:40:59.927Z,94937.00
2023-05-11T01:41:59.940Z,94937.00
2023-05-11T01:43:00.006Z,94933.00
2023-05-11T01:43:59.977Z,94935.00
2023-05-11T01:44:59.998Z,94935.00
2023-05-11T01:46:00.061Z,94933.00
2023-05-11T01:47:00.064Z,94931.00
2023-05-11T01:48:00.083Z,94933.00
2023-05-11T01:49:00.100Z,94935.00
2023-05-11T01:50:00.133Z,94935.00
2023-05-11T01:51:00.139Z,94935.00
2023-05-11T01:52:00.135Z,94937.00
2023-05-11T01:53:00.148Z,94937.00
2023-05-11T01:54:00.171Z,94933.00
2023-05-11T01:55:00.185Z,94935.00
2023-05-11T01:56:00.187Z,94933.00
2023-05-11T01:57:00.205Z,94937.00
2023-05-11T01:58:00.221Z,94937.00
2023-05-11T01:59:00.242Z,94939.00
2023-05-11T02:00:00.249Z,94939.00
2023-05-11T02:01:00.323Z,94939.00
2023-05-11T02:02:00.371Z,94939.00
2023-05-11T02:03:00.415Z,94939.00
2023-05-11T02:04:00.318Z,94937.00
2023-05-11T02:05:00.336Z,94939.00
2023-05-11T02:06:00.351Z,94939.00
2023-05-11T02:07:00.383Z,94943.00
2023-05-11T02:08:00.379Z,94941.00
2023-05-11T02:09:00.417Z,94943.00
2023-05-11T02:10:00.428Z,94943.00
2023-05-11T02:11:00.422Z,94943.00
2023-05-11T02:12:00.441Z,94941.00
2023-05-11T02:13:00.450Z,94941.00
2023-05-11T02:14:00.527Z,94939.00
2023-05-11T02:15:00.485Z,94935.00
2023-05-11T02:16:00.537Z,94937.00
2023-05-11T02:17:00.514Z,94937.00
2023-05-11T02:18:00.578Z,94937.00
2023-05-11T02:19:00.609Z,94937.00
2023-05-11T02:20:00.576Z,94937.00
2023-05-11T02:21:00.572Z,94935.00
2023-05-11T02:22:00.589Z,94937.00
2023-05-11T02:23:00.607Z,94939.00
2023-05-11T02:24:00.635Z,94939.00
2023-05-11T02:25:00.652Z,94937.00
2023-05-11T02:26:00.675Z,94937.00
2023-05-11T02:27:00.695Z,94933.00
2023-05-11T02:28:00.707Z,94937.00
2023-05-11T02:29:00.734Z,94937.00
2023-05-11T02:30:00.756Z,94933.00
2023-05-11T02:31:00.774Z,94935.00
2023-05-11T02:32:00.776Z,94933.00
2023-05-11T02:33:00.828Z,94935.00
2023-05-11T02:34:00.808Z,94937.00
2023-05-11T02:35:00.845Z,94933.00
2023-05-11T02:36:00.833Z,94933.00
2023-05-11T02:37:00.857Z,94933.00
2023-05-11T02:38:00.878Z,94933.00
2023-05-11T02:39:00.887Z,94931.00
2023-05-11T02:40:00.903Z,94933.00
2023-05-11T02:41:00.908Z,94933.00
2023-05-11T02:42:00.912Z,94935.00
2023-05-11T02:43:00.940Z,94933.00
2023-05-11T02:44:00.954Z,94935.00
2023-05-11T02:45:00.990Z,94935.00
2023-05-11T02:46:00.987Z,94935.00
2023-05-11T02:47:01.087Z,94927.00
2023-05-11T02:48:01.073Z,94927.00
2023-05-11T02:49:01.302Z,94929.00
2023-05-11T02:50:01.053Z,94927.00
2023-05-11T02:51:01.093Z,94929.00
2023-05-11T02:52:01.088Z,94923.00
2023-05-11T02:53:01.111Z,94923.00
2023-05-11T02:54:02.100Z,94923.00
2023-05-11T02:55:01.132Z,94923.00
2023-05-11T02:56:01.154Z,94923.00
2023-05-11T02:57:01.182Z,94921.00
2023-05-11T02:58:01.205Z,94925.00
2023-05-11T02:59:01.211Z,94923.00
2023-05-11T03:00:01.245Z,94925.00
2023-05-11T03:01:01.397Z,94925.00
2023-05-11T03:02:01.444Z,94921.00
2023-05-11T03:03:01.323Z,94923.00
2023-05-11T03:04:01.382Z,94923.00
2023-05-11T03:05:01.344Z,94925.00
2023-05-11T03:06:01.360Z,94923.00
2023-05-11T03:07:01.402Z,94923.00
2023-05-11T03:08:01.414Z,94921.00
2023-05-11T03:09:01.423Z,94923.00
2023-05-11T03:10:01.442Z,94923.00
2023-05-11T03:11:01.478Z,94919.00
2023-05-11T03:12:01.497Z,94919.00
2023-05-11T03:13:01.524Z,94919.00
2023-05-11T03:14:01.541Z,94919.00
2023-05-11T03:15:01.624Z,94921.00
2023-05-11T03:16:01.595Z,94921.00
2023-05-11T03:17:01.720Z,94917.00
2023-05-11T03:18:01.734Z,94919.00
2023-05-11T03:19:01.815Z,94921.00
2023-05-11T03:20:01.699Z,94921.00
2023-05-11T03:21:01.728Z,94919.00
2023-05-11T03:22:01.744Z,94921.00
2023-05-11T03:23:01.798Z,94921.00
2023-05-11T03:24:01.794Z,94917.00
2023-05-11T03:25:01.823Z,94921.00
2023-05-11T03:26:01.840Z,94915.00
2023-05-11T03:27:01.873Z,94915.00
2023-05-11T03:28:01.913Z,94917.00
2023-05-11T03:29:01.936Z,94917.00
2023-05-11T03:30:01.958Z,94915.00
2023-05-11T03:31:01.971Z,94915.00
2023-05-11T03:32:02.049Z,94917.00
2023-05-11T03:33:02.067Z,94915.00
2023-05-11T03:34:02.064Z,94917.00
2023-05-11T03:35:02.093Z,94915.00
2023-05-11T03:36:02.104Z,94915.00
2023-05-11T03:37:02.120Z,94917.00
2023-05-11T03:38:02.148Z,94915.00
2023-05-11T03:39:02.257Z,94913.00
2023-05-11T03:40:02.186Z,94911.00
2023-05-11T03:41:02.219Z,94911.00
2023-05-11T03:42:02.238Z,94911.00
2023-05-11T03:43:02.260Z,94911.00
2023-05-11T03:44:02.280Z,94909.00
2023-05-11T03:45:02.297Z,94911.00
2023-05-11T03:46:02.380Z,94911.00
2023-05-11T03:47:02.350Z,94911.00
2023-05-11T03:48:02.480Z,94913.00
2023-05-11T03:49:02.405Z,94915.00
2023-05-11T03:50:02.450Z,94915.00
2023-05-11T03:51:02.455Z,94915.00
2023-05-11T03:52:02.489Z,94913.00
2023-05-11T03:53:02.510Z,94913.00
2023-05-11T03:54:02.529Z,94913.00
2023-05-11T03:55:02.593Z,94915.00
2023-05-11T03:56:02.598Z,94913.00
2023-05-11T03:57:02.600Z,94915.00
2023-05-11T03:58:04.285Z,94915.00
2023-05-11T03:59:02.640Z,94911.00
2023-05-11T04:00:02.625Z,94913.00
2023-05-11T04:01:02.594Z,94911.00
2023-05-11T04:02:02.610Z,94913.00
2023-05-11T04:03:02.655Z,94913.00
2023-05-11T04:04:02.688Z,94913.00
2023-05-11T04:05:02.584Z,94915.00
2023-05-11T04:06:02.633Z,94913.00
2023-05-11T04:07:02.573Z,94913.00
2023-05-11T04:08:02.548Z,94911.00
2023-05-11T04:09:02.541Z,94909.00
2023-05-11T04:10:02.535Z,94911.00
2023-05-11T04:11:02.579Z,94911.00
2023-05-11T04:12:02.530Z,94913.00
2023-05-11T04:13:02.517Z,94911.00
2023-05-11T04:14:02.517Z,94913.00
2023-05-11T04:15:02.496Z,94913.00
2023-05-11T04:16:02.571Z,94913.00
2023-05-11T04:17:02.489Z,94913.00
2023-05-11T04:18:02.505Z,94909.00
2023-05-11T04:19:02.640Z,94909.00
2023-05-11T04:20:02.473Z,94911.00
2023-05-11T04:21:02.451Z,94913.00
2023-05-11T04:22:02.447Z,94915.00
2023-05-11T04:23:02.447Z,94913.00
2023-05-11T04:24:02.441Z,94919.00
2023-05-11T04:25:02.433Z,94915.00
2023-05-11T04:26:02.421Z,94915.00
2023-05-11T04:27:02.441Z,94915.00
2023-05-11T04:28:02.406Z,94915.00
2023-05-11T04:29:02.397Z,94917.00
2023-05-11T04:30:02.408Z,94917.00
2023-05-11T04:31:02.416Z,94919.00
2023-05-11T04:32:02.434Z,94919.00
2023-05-11T04:33:02.452Z,94921.00
2023-05-11T04:34:02.377Z,94923.00
2023-05-11T04:35:02.383Z,94923.00
2023-05-11T04:36:02.428Z,94925.00
2023-05-11T04:37:02.455Z,94927.00
2023-05-11T04:38:02.477Z,94925.00
2023-05-11T04:39:02.508Z,94929.00
2023-05-11T04:40:02.550Z,94925.00
2023-05-11T04:41:02.571Z,94929.00
2023-05-11T04:42:02.639Z,94929.00
2023-05-11T04:43:02.661Z,94929.00
2023-05-11T04:44:02.664Z,94927.00
2023-05-11T04:45:02.697Z,94929.00
2023-05-11T04:46:02.717Z,94931.00
2023-05-11T04:47:02.812Z,94931.00
2023-05-11T04:48:02.819Z,94929.00
2023-05-11T04:49:02.830Z,94927.00
2023-05-11T04:50:02.870Z,94929.00
2023-05-11T04:51:02.890Z,94931.00
2023-05-11T04:52:02.930Z,94933.00
2023-05-11T04:53:02.950Z,94933.00
2023-05-11T04:54:02.990Z,94933.00
2023-05-11T04:55:03.016Z,94935.00
2023-05-11T04:56:03.043Z,94935.00
2023-05-11T04:57:03.070Z,94937.00
2023-05-11T04:58:03.107Z,94937.00
2023-05-11T04:59:05.259Z,94939.00
2023-05-11T05:00:03.142Z,94937.00
2023-05-11T05:01:03.171Z,94937.00
2023-05-11T05:02:03.126Z,94933.00
2023-05-11T05:03:03.205Z,94937.00
2023-05-11T05:04:03.174Z,94937.00
2023-05-11T05:05:03.114Z,94941.00
2023-05-11T05:06:03.650Z,94939.00
2023-05-11T05:07:03.089Z,94939.00
2023-05-11T05:08:03.073Z,94937.00
2023-05-11T05:09:03.066Z,94937.00
2023-05-11T05:10:03.062Z,94937.00
2023-05-11T05:11:03.067Z,94939.00
2023-05-11T05:12:03.046Z,94937.00
2023-05-11T05:13:03.075Z,94937.00
2023-05-11T05:14:03.033Z,94935.00
2023-05-11T05:15:03.060Z,94937.00
2023-05-11T05:16:03.021Z,94937.00
2023-05-11T05:17:03.076Z,94939.00
2023-05-11T05:18:03.047Z,94941.00
2023-05-11T05:19:03.100Z,94943.00
2023-05-11T05:20:02.993Z,94941.00
2023-05-11T05:21:03.166Z,94943.00
2023-05-11T05:22:03.036Z,94943.00
2023-05-11T05:23:02.972Z,94944.00
2023-05-11T05:24:02.958Z,94944.00
2023-05-11T05:25:02.959Z,94943.00
2023-05-11T05:26:02.985Z,94943.00
2023-05-11T05:27:03.172Z,94944.00
2023-05-11T05:28:02.939Z,94944.00
2023-05-11T05:29:02.925Z,94944.00
2023-05-11T05:30:02.933Z,94946.00
2023-05-11T05:31:03.267Z,94943.00
2023-05-11T05:32:02.959Z,94943.00
2023-05-11T05:33:03.078Z,94944.00
2023-05-11T05:34:03.029Z,94944.00
2023-05-11T05:35:03.057Z,94946.00
2023-05-11T05:36:03.176Z,94944.00
2023-05-11T05:37:03.120Z,94948.00
2023-05-11T05:38:03.180Z,94950.00
2023-05-11T05:39:03.178Z,94950.00
2023-05-11T05:40:04.218Z,94950.00
2023-05-11T05:41:03.703Z,94950.00
2023-05-11T05:42:03.276Z,94954.00
2023-05-11T05:43:03.325Z,94950.00
2023-05-11T05:44:03.457Z,94952.00
2023-05-11T05:45:03.690Z,94952.00
2023-05-11T05:46:03.723Z,94950.00
2023-05-11T05:47:03.510Z,94950.00
2023-05-11T05:48:03.532Z,94956.00
2023-05-11T05:49:03.689Z,94950.00
2023-05-11T05:50:03.679Z,94952.00
2023-05-11T05:51:03.679Z,94954.00
2023-05-11T05:52:03.824Z,94952.00
2023-05-11T05:53:19.465Z,94954.00
2023-05-11T05:54:06.965Z,94954.00
2023-05-11T05:55:03.944Z,94956.00
2023-05-11T05:57:07.012Z,94958.00
2023-05-11T05:59:07.589Z,94962.00
2023-05-11T06:00:04.802Z,94960.00
2023-05-11T06:01:07.038Z,94966.00
2023-05-11T06:03:06.906Z,94964.00
2023-05-11T06:04:35.466Z,94966.00
2023-05-11T06:05:06.877Z,94966.00
2023-05-11T06:07:19.189Z,94964.00
2023-05-11T06:08:10.581Z,94964.00
2023-05-11T06:10:10.948Z,94966.00
2023-05-11T06:11:06.882Z,94968.00
2023-05-11T06:12:10.957Z,94964.00
2023-05-11T06:13:03.533Z,94966.00
2023-05-11T06:14:03.516Z,94972.00
2023-05-11T06:15:03.523Z,94968.00
2023-05-11T06:16:03.777Z,94970.00
2023-05-11T06:17:04.003Z,94970.00
2023-05-11T06:18:03.644Z,94968.00
2023-05-11T06:19:03.561Z,94968.00
2023-05-11T06:20:03.488Z,94972.00
2023-05-11T11:50:07.591Z,94878.00
2023-05-11T11:51:08.632Z,94874.00
2023-05-11T11:52:08.524Z,94874.00
2023-05-11T11:53:08.593Z,94874.00
2023-05-11T11:54:08.548Z,94872.00
2023-05-11T11:55:08.501Z,94872.00
2023-05-11T11:56:08.493Z,94870.00
2023-05-11T11:57:08.510Z,94868.00
2023-05-11T11:58:08.480Z,94868.00
2023-05-11T11:59:08.470Z,94866.00
2023-05-11T12:00:08.477Z,94866.00
2023-05-11T12:01:08.459Z,94866.00
2023-05-11T12:02:08.455Z,94868.00
2023-05-11T12:03:08.534Z,94866.00
2023-05-11T12:04:08.558Z,94870.00
2023-05-11T12:05:08.560Z,94872.00
2023-05-11T12:06:08.456Z,94870.00
2023-05-11T12:07:08.424Z,94870.00
2023-05-11T12:08:08.716Z,94870.00
2023-05-11T12:09:08.506Z,94868.00
2023-05-11T12:10:08.490Z,94858.00
2023-05-11T12:11:08.458Z,94866.00
2023-05-11T12:12:08.507Z,94864.00
2023-05-11T12:13:08.521Z,94862.00
2023-05-11T12:14:08.547Z,94864.00
2023-05-11T12:15:08.552Z,94864.00
2023-05-11T12:16:08.641Z,94866.00
2023-05-11T12:17:08.606Z,94864.00
2023-05-11T12:18:08.707Z,94864.00
2023-05-11T12:19:08.687Z,94862.00
2023-05-11T12:20:08.662Z,94862.00
2023-05-11T12:21:08.649Z,94864.00
2023-05-11T12:22:08.678Z,94862.00
2023-05-11T12:23:08.751Z,94864.00
2023-05-11T12:24:09.648Z,94860.00
2023-05-11T12:25:08.720Z,94862.00
2023-05-11T12:26:08.659Z,94862.00
2023-05-11T12:27:08.703Z,94864.00
2023-05-11T12:28:08.764Z,94862.00
2023-05-11T12:29:09.835Z,94862.00
2023-05-11T12:30:08.918Z,94864.00
2023-05-11T12:31:08.929Z,94860.00
2023-05-11T12:32:09.017Z,94864.00
2023-05-11T12:33:09.294Z,94862.00
2023-05-11T12:34:09.047Z,94860.00
2023-05-11T12:35:09.095Z,94860.00
2023-05-11T12:36:09.133Z,94858.00
2023-05-11T12:37:09.180Z,94862.00
2023-05-11T12:38:09.832Z,94856.00
2023-05-11T12:39:09.320Z,94852.00
2023-05-11T12:40:09.598Z,94850.00
2023-05-11T12:41:09.422Z,94852.00
2023-05-11T12:42:09.491Z,94850.00
2023-05-11T12:43:09.546Z,94854.00
2023-05-11T12:44:09.663Z,94852.00
2023-05-11T12:45:09.949Z,94852.00
2023-05-11T12:46:09.831Z,94852.00
2023-05-11T12:47:09.779Z,94850.00
2023-05-11T12:48:09.969Z,94850.00
2023-05-11T12:49:10.176Z,94850.00
2023-05-11T12:50:09.947Z,94848.00
2023-05-11T12:51:10.238Z,94848.00
2023-05-11T12:52:09.964Z,94848.00
2023-05-11T12:53:10.029Z,94846.00
2023-05-11T12:54:10.055Z,94846.00
2023-05-11T12:55:10.055Z,94848.00
2023-05-11T12:56:10.241Z,94844.00
2023-05-11T12:57:10.147Z,94848.00
2023-05-11T12:58:10.239Z,94846.00
2023-05-11T12:59:10.194Z,94846.00
2023-05-11T13:00:10.200Z,94844.00
2023-05-11T13:01:10.313Z,94843.00
2023-05-11T13:02:10.292Z,94844.00
2023-05-11T13:03:10.887Z,94843.00
2023-05-11T13:04:10.428Z,94843.00
2023-05-11T13:05:10.312Z,94841.00
2023-05-11T13:06:10.332Z,94839.00
2023-05-11T13:07:10.348Z,94839.00
2023-05-11T13:08:10.744Z,94837.00
2023-05-11T13:09:10.384Z,94837.00
2023-05-11T13:10:10.413Z,94833.00
2023-05-11T13:11:10.408Z,94835.00
2023-05-11T13:12:10.413Z,94831.00
2023-05-11T13:13:10.750Z,94833.00
2023-05-11T13:14:10.490Z,94831.00
2023-05-11T13:15:10.466Z,94829.00
2023-05-11T13:16:10.502Z,94829.00
2023-05-11T13:17:10.471Z,94831.00
2023-05-11T13:18:10.797Z,94829.00
2023-05-11T13:19:10.519Z,94831.00
2023-05-11T13:20:10.500Z,94829.00
2023-05-11T13:21:10.487Z,94827.00
2023-05-11T13:22:10.485Z,94829.00
2023-05-11T13:23:10.496Z,94827.00
2023-05-11T13:24:10.509Z,94829.00
2023-05-11T13:25:10.524Z,94829.00
2023-05-11T13:26:11.026Z,94829.00
2023-05-11T13:27:10.538Z,94827.00
2023-05-11T13:28:10.540Z,94827.00
2023-05-11T13:29:11.408Z,94829.00
2023-05-11T13:30:10.612Z,94827.00
2023-05-11T13:31:10.793Z,94829.00
2023-05-11T13:32:10.620Z,94829.00
2023-05-11T13:33:10.575Z,94829.00
2023-05-11T13:34:10.575Z,94827.00
2023-05-11T13:35:10.586Z,94827.00
2023-05-11T13:36:10.573Z,94823.00
2023-05-11T13:37:10.580Z,94821.00
2023-05-11T13:38:10.560Z,94823.00
2023-05-11T13:39:10.596Z,94823.00
2023-05-11T13:40:10.589Z,94823.00
2023-05-11T13:41:10.554Z,94823.00
2023-05-11T13:42:10.608Z,94821.00
2023-05-11T13:43:10.791Z,94821.00
2023-05-11T13:44:10.543Z,94821.00
2023-05-11T13:45:10.558Z,94825.00
2023-05-11T13:46:10.531Z,94825.00
2023-05-11T13:47:10.796Z,94823.00
2023-05-11T13:48:10.575Z,94825.00
2023-05-11T13:49:10.535Z,94823.00
2023-05-11T13:50:10.546Z,94821.00
2023-05-11T13:51:10.536Z,94823.00
2023-05-11T13:52:10.793Z,94823.00
2023-05-11T13:53:12.871Z,94821.00
2023-05-11T13:54:10.546Z,94821.00
2023-05-11T13:55:10.529Z,94823.00
2023-05-11T13:56:10.521Z,94821.00
2023-05-11T13:57:10.545Z,94821.00
2023-05-11T13:58:10.800Z,94823.00
2023-05-11T13:59:10.497Z,94821.00
2023-05-11T14:00:10.494Z,94819.00
2023-05-11T14:01:10.490Z,94821.00
2023-05-11T14:02:10.579Z,94819.00
2023-05-11T14:03:10.522Z,94819.00
2023-05-11T14:04:10.486Z,94819.00
2023-05-11T14:05:10.454Z,94819.00
2023-05-11T14:06:10.443Z,94813.00
2023-05-11T14:07:10.475Z,94815.00
2023-05-11T14:08:10.444Z,94815.00
2023-05-11T14:09:10.439Z,94813.00
2023-05-11T14:10:10.419Z,94813.00
2023-05-11T14:11:10.778Z,94811.00
2023-05-11T14:12:10.409Z,94811.00
2023-05-11T14:13:10.399Z,94811.00
2023-05-11T14:14:10.816Z,94811.00
2023-05-11T14:15:10.389Z,94809.00
2023-05-11T14:16:10.390Z,94807.00
2023-05-11T14:17:10.414Z,94809.00
2023-05-11T14:18:10.590Z,94805.00
2023-05-11T14:19:10.599Z,94809.00
2023-05-11T14:20:10.393Z,94809.00
2023-05-11T14:21:10.392Z,94807.00
2023-05-11T14:22:10.459Z,94805.00
2023-05-11T14:23:10.785Z,94805.00
2023-05-11T14:24:12.444Z,94805.00
2023-05-11T14:25:10.590Z,94805.00
2023-05-11T14:26:10.570Z,94807.00
2023-05-11T14:27:10.578Z,94807.00
2023-05-11T14:28:10.564Z,94807.00
2023-05-11T14:29:10.582Z,94805.00
2023-05-11T14:30:10.574Z,94805.00
2023-05-11T14:31:10.601Z,94801.00
2023-05-11T14:32:10.526Z,94801.00
2023-05-11T14:33:10.557Z,94803.00
2023-05-11T14:34:10.511Z,94799.00
2023-05-11T14:35:10.507Z,94797.00
2023-05-11T14:36:10.493Z,94799.00
2023-05-11T14:37:10.497Z,94797.00
2023-05-11T14:38:10.791Z,94797.00
2023-05-11T14:39:10.600Z,94799.00
2023-05-11T14:40:10.650Z,94799.00
2023-05-11T14:41:10.714Z,94799.00
2023-05-11T14:42:10.768Z,94799.00
2023-05-11T14:43:10.770Z,94794.00
2023-05-11T14:44:10.787Z,94797.00
2023-05-11T14:45:10.802Z,94796.00
2023-05-11T14:46:10.927Z,94796.00
2023-05-11T14:47:10.803Z,94797.00
2023-05-11T14:48:10.826Z,94797.00
2023-05-11T14:49:10.796Z,94797.00
2023-05-11T14:50:10.797Z,94794.00
2023-05-11T14:51:10.803Z,94796.00
2023-05-11T14:52:10.823Z,94797.00
2023-05-11T14:53:10.804Z,94796.00
2023-05-11T14:54:10.809Z,94794.00
2023-05-11T14:55:10.822Z,94796.00
2023-05-11T14:56:10.817Z,94794.00
2023-05-11T14:57:10.822Z,94796.00
2023-05-11T14:58:10.848Z,94790.00
2023-05-11T14:59:10.854Z,94792.00
2023-05-11T15:00:10.876Z,94788.00
2023-05-11T15:01:10.927Z,94790.00
2023-05-11T15:02:10.930Z,94790.00
2023-05-11T15:03:11.081Z,94790.00
2023-05-11T15:04:11.054Z,94788.00
2023-05-11T15:05:10.962Z,94788.00
2023-05-11T15:06:10.978Z,94790.00
2023-05-11T15:07:10.999Z,94790.00
2023-05-11T15:08:25.737Z,94790.00
2023-05-11T15:09:11.024Z,94792.00
2023-05-11T15:10:11.017Z,94792.00
2023-05-11T15:11:10.998Z,94788.00
2023-05-11T15:12:11.001Z,94792.00
2023-05-11T15:13:10.981Z,94790.00
2023-05-11T15:14:10.981Z,94792.00
2023-05-11T15:15:10.964Z,94790.00
2023-05-11T15:16:10.993Z,94788.00
2023-05-11T15:17:10.954Z,94786.00
2023-05-11T15:18:11.048Z,94784.00
2023-05-11T15:19:11.024Z,94784.00
2023-05-11T15:20:10.947Z,94784.00
2023-05-11T15:21:10.931Z,94782.00
2023-05-11T15:22:10.937Z,94788.00
2023-05-11T15:23:10.924Z,94784.00
2023-05-11T15:24:11.267Z,94782.00
2023-05-11T15:25:10.913Z,94786.00
2023-05-11T15:26:10.907Z,94786.00
2023-05-11T15:27:10.894Z,94788.00
2023-05-11T15:28:10.924Z,94788.00
2023-05-11T15:29:10.887Z,94786.00
2023-05-11T15:30:10.881Z,94786.00
2023-05-11T15:31:10.927Z,94786.00
2023-05-11T15:32:10.922Z,94786.00
2023-05-11T15:33:10.928Z,94784.00
2023-05-11T15:34:10.876Z,94782.00
2023-05-11T15:35:11.052Z,94786.00
2023-05-11T15:36:10.859Z,94786.00
2023-05-11T15:37:10.830Z,94784.00
2023-05-11T15:38:10.824Z,94784.00
2023-05-11T15:39:11.319Z,94786.00
2023-05-11T15:40:10.814Z,94784.00
2023-05-11T15:41:10.818Z,94782.00
2023-05-11T15:42:10.796Z,94782.00
2023-05-11T15:43:10.801Z,94780.00
2023-05-11T15:44:10.833Z,94782.00
2023-05-11T15:45:10.779Z,94784.00
2023-05-11T15:46:10.872Z,94782.00
2023-05-11T15:47:10.771Z,94784.00
2023-05-11T15:48:10.850Z,94782.00
2023-05-11T15:49:10.763Z,94784.00
2023-05-11T15:50:10.836Z,94782.00
2023-05-11T15:51:10.745Z,94780.00
2023-05-11T15:52:10.749Z,94782.00
2023-05-11T15:53:10.749Z,94782.00
2023-05-11T15:54:10.735Z,94786.00
2023-05-11T15:55:10.729Z,94784.00
2023-05-11T15:56:10.713Z,94782.00
2023-05-11T15:57:10.754Z,94782.00
2023-05-11T15:58:10.771Z,94784.00
2023-05-11T15:59:10.829Z,94782.00
2023-05-11T16:00:10.900Z,94782.00
2023-05-11T16:01:10.995Z,94782.00
2023-05-11T16:02:11.027Z,94782.00
2023-05-11T16:03:11.303Z,94784.00
2023-05-11T16:04:11.103Z,94780.00
2023-05-11T16:05:11.170Z,94780.00
2023-05-11T16:06:11.282Z,94780.00
2023-05-11T16:07:11.282Z,94778.00
2023-05-11T16:08:11.346Z,94778.00
2023-05-11T16:09:11.408Z,94778.00
2023-05-11T16:10:11.453Z,94778.00
2023-05-11T16:11:11.509Z,94778.00
2023-05-11T16:12:11.588Z,94782.00
2023-05-11T16:13:11.640Z,94778.00
2023-05-11T16:14:11.711Z,94778.00
2023-05-11T16:15:11.748Z,94776.00
2023-05-11T16:16:11.820Z,94776.00
2023-05-11T16:17:11.948Z,94776.00
2023-05-11T16:18:12.016Z,94778.00
2023-05-11T16:19:12.027Z,94774.00
2023-05-11T16:20:12.077Z,94774.00
2023-05-11T16:21:12.135Z,94774.00
2023-05-11T16:22:12.228Z,94774.00
2023-05-11T16:23:12.252Z,94772.00
2023-05-11T16:24:12.293Z,94772.00
2023-05-11T16:25:12.349Z,94772.00
2023-05-11T16:26:12.403Z,94774.00
2023-05-11T16:27:12.460Z,94770.00
2023-05-11T16:28:12.515Z,94774.00
2023-05-11T16:29:12.585Z,94772.00
2023-05-11T16:30:23.139Z,94768.00
2023-05-11T16:31:12.669Z,94770.00
2023-05-11T16:32:12.627Z,94770.00
2023-05-11T16:33:12.689Z,94770.00
2023-05-11T16:34:12.619Z,94772.00
2023-05-11T16:35:12.607Z,94770.00
2023-05-11T16:36:12.603Z,94774.00
2023-05-11T16:37:12.600Z,94770.00
2023-05-11T16:38:12.623Z,94772.00
2023-05-11T16:39:12.608Z,94770.00
2023-05-11T16:40:12.585Z,94770.00
2023-05-11T16:41:12.579Z,94770.00
2023-05-11T16:42:12.570Z,94770.00
2023-05-11T16:43:12.571Z,94768.00
2023-05-11T16:44:12.567Z,94770.00
2023-05-11T16:45:12.557Z,94770.00
2023-05-11T16:46:12.594Z,94768.00
2023-05-11T16:47:12.544Z,94770.00
2023-05-11T16:48:12.528Z,94768.00
2023-05-11T16:49:12.533Z,94770.00
2023-05-11T16:50:12.528Z,94770.00
2023-05-11T16:51:12.522Z,94768.00
2023-05-11T16:52:12.511Z,94764.00
2023-05-11T16:53:12.501Z,94766.00
2023-05-11T16:54:12.518Z,94764.00
2023-05-11T16:55:12.488Z,94764.00
2023-05-11T16:56:12.504Z,94762.00
2023-05-11T16:57:12.538Z,94764.00
2023-05-11T16:58:12.578Z,94762.00
2023-05-11T16:59:12.599Z,94762.00
2023-05-11T17:00:12.649Z,94760.00
2023-05-11T17:01:12.677Z,94760.00
2023-05-11T17:02:12.705Z,94760.00
2023-05-11T17:03:12.742Z,94760.00
2023-05-11T17:04:12.717Z,94756.00
2023-05-11T17:05:12.690Z,94754.00
2023-05-11T17:06:12.694Z,94754.00
2023-05-11T17:07:12.706Z,94758.00
2023-05-11T17:08:12.739Z,94756.00
2023-05-11T17:09:12.753Z,94756.00
2023-05-11T17:10:12.777Z,94756.00
2023-05-11T17:11:12.803Z,94756.00
2023-05-11T17:12:12.809Z,94756.00
2023-05-11T17:13:12.826Z,94752.00
2023-05-11T17:14:12.840Z,94754.00
2023-05-11T17:15:12.860Z,94750.00
2023-05-11T17:16:12.948Z,94750.00
2023-05-11T17:17:12.910Z,94752.00
2023-05-11T17:18:12.945Z,94752.00
2023-05-11T17:19:13.028Z,94752.00